Ship Status Report: callsign A8XQ6

sailwx.info

Track history (hours):
 
Tides and Currents Weather Stations Pressure Air Temp Water Temp Dewpoint Dewpoint Depression Visibility Wind Speed Wind Dir Waves Ship Positions

Callsign A8XQ6 (name unknown)

Last reported at 2015-Aug-02 17:33 UTC. Time now 2015-Aug-02 18:27 UTC.
Position N 51°16' E 001°48'.

Length 188 m; draft 10.6 m.

Type: Cargo ship. MMSI: 636092151.

Date/timePositionNaut miles runAvg speedWind from/ knotsBaromVisibWave heightAir tempDewpointWater temp
2015-Aug-02 17:33N 51°16' E 001°48'1312.7
2015-Aug-02 16:33N 51°27' E 001°57'1212.0
2015-Aug-02 15:33N 51°36' E 002°10'1211.7
2015-Aug-02 14:33N 51°45' E 002°23'2412.1
2015-Aug-02 12:33N 52°08' E 002°37'1514.7
2015-Aug-02 11:33N 52°21' E 002°47'1515.3
2015-Aug-02 10:33N 52°35' E 002°59'1515.4
2015-Aug-02 09:33N 52°48' E 003°10'1915.0
2015-Aug-02 08:18N 53°06' E 003°21'9213.1
2015-Aug-02 01:19N 54°22' E 004°47'1113.6
2015-Aug-02 00:32N 54°31' E 004°58'9213.2
2015-Aug-01 17:33N 55°47' E 006°30'1313.0
2015-Aug-01 16:33N 55°58' E 006°42'13312.9
2015-Aug-01 06:15N 57°40' E 009°18'2312.5
2015-Aug-01 04:27N 57°48' E 009°58'1112.2
2015-Aug-01 03:33N 57°49' E 010°18'1211.7
2015-Aug-01 02:33N 57°49' E 010°40'1212.0
2015-Aug-01 01:33N 57°42' E 010°58'1312.7
2015-Aug-01 00:33N 57°33' E 011°15'1313.0
2015-Jul-31 23:33N 57°22' E 011°29'1413.5
2015-Jul-31 22:34N 57°09' E 011°38'1413.9
2015-Jul-31 21:33N 56°56' E 011°46'1212.4
2015-Jul-31 20:33N 56°44' E 011°52'9111.1
2015-Jul-31 12:20N 55°18' E 011°03'810.6
2015-Jul-31 11:32N 55°09' E 011°03'1111.5
2015-Jul-31 10:33N 54°58' E 010°58'1211.2
2015-Jul-31 09:30N 54°47' E 010°50'8 8.0
2015-Jul-31 08:33N 54°40' E 010°49'9 9.0
2015-Jul-31 07:33N 54°36' E 011°03'1212.1
2015-Jul-31 06:33N 54°33' E 011°23'1212.2
2015-Jul-31 05:33N 54°27' E 011°42'1211.9
2015-Jul-31 04:33N 54°26' E 012°02'1110.5
2015-Jul-31 03:31N 54°34' E 012°15'5112.1
2015-Jul-30 23:21N 54°58' E 013°32'1013.1
2015-Jul-30 22:33N 55°01' E 013°49'1312.6
2015-Jul-30 21:33N 55°07' E 014°08'1313.4
2015-Jul-30 20:33N 55°18' E 014°23'1313.3
2015-Jul-30 19:33N 55°28' E 014°39'1313.3
2015-Jul-30 18:33N 55°34' E 014°60'1313.5
2015-Jul-30 17:33N 55°41' E 015°20'1613.3
2015-Jul-30 16:20N 55°49' E 015°46'31313.2
2015-Jul-29 16:33N 59°31' E 022°38'1413.9
2015-Jul-29 15:32N 59°35' E 023°05'1413.9
2015-Jul-29 14:33N 59°39' E 023°31'1414.0
2015-Jul-29 13:33N 59°43' E 023°58'1513.8
2015-Jul-29 12:28N 59°47' E 024°26'1514.0
2015-Jul-29 11:23N 59°51' E 024°56'2913.9
2015-Jul-29 09:18N 59°56' E 025°53'1113.6
2015-Jul-29 08:30N 59°59' E 026°14'1313.5
2015-Jul-29 07:34N 60°01' E 026°39'1513.0
2015-Jul-29 06:25N 60°01' E 027°08'1313.9
2015-Jul-29 05:29N 60°08' E 027°30'5313.0
2015-Jul-29 01:24N 60°02' E 029°16'7 8.9
2015-Jul-29 00:33N 60°01' E 029°31'9 8.5
2015-Jul-28 23:33N 59°58' E 029°47'9 8.6
2015-Jul-28 22:33N 59°55' E 030°03'5 5.0
2015-Jul-28 21:33N 59°53' E 030°12'0 0.2
2015-Jul-28 20:33N 59°53' E 030°12'0 0.0
2015-Jul-28 19:33N 59°53' E 030°12'0 0.0
2015-Jul-28 18:33N 59°53' E 030°12'0 0.0
2015-Jul-28 17:33N 59°53' E 030°12'0 0.0
2015-Jul-28 16:33N 59°53' E 030°12'0 0.0
2015-Jul-28 15:24N 59°53' E 030°12'0 0.0
2015-Jul-28 14:33N 59°53' E 030°12'0 0.0
2015-Jul-28 13:33N 59°53' E 030°12'0 0.0
2015-Jul-28 12:33N 59°53' E 030°12'0 0.0
2015-Jul-28 11:30N 59°53' E 030°12'0 0.0
2015-Jul-28 10:27N 59°53' E 030°12'0 0.0
2015-Jul-28 09:33N 59°53' E 030°12'0 0.0
2015-Jul-28 08:33N 59°53' E 030°12'0 0.0
2015-Jul-28 07:33N 59°53' E 030°12'0 0.0
2015-Jul-28 06:33N 59°53' E 030°12'0 0.0
2015-Jul-28 05:33N 59°53' E 030°12'0 0.0
2015-Jul-28 04:33N 59°53' E 030°12'0 0.0
2015-Jul-28 03:33N 59°53' E 030°12'0 0.0
2015-Jul-28 02:33N 59°53' E 030°12'0 0.0
2015-Jul-28 01:33N 59°53' E 030°12'0 0.0
2015-Jul-28 00:33N 59°53' E 030°12'0 0.0
2015-Jul-27 23:33N 59°53' E 030°12'0 0.0
2015-Jul-27 22:33N 59°53' E 030°12'0 0.0
2015-Jul-27 21:30N 59°53' E 030°12'0 0.0
2015-Jul-27 20:33N 59°53' E 030°12'0 0.0
2015-Jul-27 19:33N 59°53' E 030°12'0 0.0
2015-Jul-27 18:30N 59°53' E 030°12'0 0.0
2015-Jul-27 17:30N 59°53' E 030°12'0 0.0
2015-Jul-27 16:33N 59°53' E 030°12'0 0.0
2015-Jul-27 15:30N 59°53' E 030°12'0 0.0
2015-Jul-27 14:33N 59°53' E 030°12'0 0.0
2015-Jul-27 13:30N 59°53' E 030°12'0 0.0
2015-Jul-27 12:33N 59°53' E 030°12'0 0.0
2015-Jul-27 11:33N 59°53' E 030°12'0 0.0
2015-Jul-27 10:33N 59°53' E 030°12'0 0.0
2015-Jul-27 09:33N 59°53' E 030°12'0 0.0
2015-Jul-27 08:32N 59°53' E 030°12'0 0.0
2015-Jul-27 07:33N 59°53' E 030°12'0 0.0
2015-Jul-27 06:32N 59°53' E 030°12'0 0.0
2015-Jul-27 05:33N 59°53' E 030°12'0 0.0
2015-Jul-27 04:33N 59°53' E 030°12'0 0.0
2015-Jul-27 03:33N 59°53' E 030°12'0 0.0
2015-Jul-27 02:32N 59°53' E 030°12'0 0.0
2015-Jul-27 01:33N 59°53' E 030°12'0 0.0
2015-Jul-27 00:32N 59°53' E 030°12'0 0.0
2015-Jul-26 23:33N 59°53' E 030°12'0 0.0
2015-Jul-26 22:33N 59°53' E 030°12'0 0.0
2015-Jul-26 21:32N 59°53' E 030°12'0 0.0
2015-Jul-26 20:32N 59°53' E 030°12'0 0.0
2015-Jul-26 19:33N 59°53' E 030°12'0 0.0
2015-Jul-26 18:33N 59°53' E 030°12'0 0.0
2015-Jul-26 17:32N 59°53' E 030°12'0 0.0
2015-Jul-26 16:32N 59°53' E 030°12'0 0.0
2015-Jul-26 15:33N 59°53' E 030°12'0 0.0
2015-Jul-26 14:32N 59°53' E 030°12'0 0.0
2015-Jul-26 13:32N 59°53' E 030°12'0 0.0
2015-Jul-26 12:32N 59°53' E 030°12'0 0.0
2015-Jul-26 11:32N 59°53' E 030°12'0 0.0
2015-Jul-26 10:32N 59°53' E 030°12'0 0.0
2015-Jul-26 09:30N 59°53' E 030°12'0 0.0
2015-Jul-26 08:32N 59°53' E 030°12'0 0.0
2015-Jul-26 07:33N 59°53' E 030°12'0 0.0
2015-Jul-26 06:32N 59°53' E 030°12'0 0.0
2015-Jul-26 05:32N 59°53' E 030°12'0 0.0
2015-Jul-26 04:32N 59°53' E 030°12'0 0.0
2015-Jul-26 03:32N 59°53' E 030°12'0 0.0
2015-Jul-26 02:32N 59°53' E 030°12'0 0.0
2015-Jul-26 01:32N 59°53' E 030°12'0 0.0
2015-Jul-26 00:29N 59°53' E 030°12'0 0.0
2015-Jul-25 23:32N 59°53' E 030°12'0 0.0
2015-Jul-25 22:32N 59°53' E 030°12'0 0.0
2015-Jul-25 21:32N 59°53' E 030°12'0 0.0
2015-Jul-25 20:32N 59°53' E 030°12'0 0.0
2015-Jul-25 19:32N 59°53' E 030°12'0 0.0
2015-Jul-25 18:29N 59°53' E 030°12'0 0.0
2015-Jul-25 17:32N 59°53' E 030°12'0 0.0
2015-Jul-25 16:32N 59°53' E 030°12'0 0.0
2015-Jul-25 15:32N 59°53' E 030°12'0 0.0
2015-Jul-25 14:32N 59°53' E 030°12'0 0.0
2015-Jul-25 13:32N 59°53' E 030°12'0 0.0
2015-Jul-25 12:32N 59°53' E 030°12'0 0.0
2015-Jul-25 11:32N 59°53' E 030°12'0 0.0
2015-Jul-25 10:32N 59°53' E 030°12'0 0.0
2015-Jul-25 09:29N 59°53' E 030°12'0 0.0
2015-Jul-25 08:32N 59°53' E 030°12'0 0.0
2015-Jul-25 07:32N 59°53' E 030°12'0 0.0
2015-Jul-25 06:32N 59°53' E 030°12'0 0.0
2015-Jul-25 05:32N 59°53' E 030°12'0 0.0
2015-Jul-25 04:32N 59°53' E 030°12'0 0.0
2015-Jul-25 03:32N 59°53' E 030°12'0 0.0
2015-Jul-25 02:32N 59°53' E 030°12'0 0.0
2015-Jul-25 01:32N 59°53' E 030°12'0 0.0
2015-Jul-25 00:32N 59°53' E 030°12'0 0.0
2015-Jul-24 23:32N 59°53' E 030°12'0 0.0
2015-Jul-24 22:32N 59°53' E 030°12'0 0.0
2015-Jul-24 21:32N 59°53' E 030°12'0 0.0
2015-Jul-24 20:32N 59°53' E 030°12'0 0.0
2015-Jul-24 19:32N 59°53' E 030°12'0 0.0
2015-Jul-24 18:32N 59°53' E 030°12'0 0.0
2015-Jul-24 17:29N 59°53' E 030°12'0 0.0
2015-Jul-24 16:29N 59°53' E 030°12'0 0.0
2015-Jul-24 15:32N 59°53' E 030°12'0 0.0
2015-Jul-24 14:32N 59°53' E 030°12'0 0.0
2015-Jul-24 13:32N 59°53' E 030°12'0 0.0
2015-Jul-24 12:32N 59°53' E 030°12'0 0.0
2015-Jul-24 11:32N 59°53' E 030°12'0 0.0
2015-Jul-24 10:32N 59°53' E 030°12'0 0.0
2015-Jul-24 09:32N 59°53' E 030°12'0 0.0
2015-Jul-24 08:32N 59°53' E 030°12'0 0.0
2015-Jul-24 07:32N 59°53' E 030°12'0 0.0
2015-Jul-24 06:32N 59°53' E 030°12'0 0.0
2015-Jul-24 05:29N 59°53' E 030°12'0 0.0
2015-Jul-24 04:32N 59°53' E 030°12'0 0.0
2015-Jul-24 03:32N 59°53' E 030°12'0 0.0
2015-Jul-24 02:32N 59°53' E 030°12'0 0.0
2015-Jul-24 01:32N 59°53' E 030°12'0 0.0
2015-Jul-24 00:32N 59°53' E 030°12'0 0.0
2015-Jul-23 23:29N 59°53' E 030°12'0 0.0
2015-Jul-23 22:32N 59°53' E 030°12'0 0.0
2015-Jul-23 21:32N 59°53' E 030°12'0 0.0
2015-Jul-23 20:32N 59°53' E 030°12'0 0.0
2015-Jul-23 19:32N 59°53' E 030°12'0 0.0
2015-Jul-23 18:32N 59°53' E 030°12'  
Track history (hours):
 
Tides and Currents Weather Stations Pressure Air Temp Water Temp Dewpoint Dewpoint Depression Visibility Wind Speed Wind Dir Waves Ship Positions

Callsign A8XQ6 (name unknown)

Last reported at 2015-Aug-02 17:33 UTC. Time now 2015-Aug-02 18:27 UTC.
Position N 51°16' E 001°48'.

Length 188 m; draft 10.6 m.

Type: Cargo ship. MMSI: 636092151.

Date/timePositionNaut miles runAvg speedWind from/ knotsBaromVisibWave heightAir tempDewpointWater temp
2015-Aug-02 17:33N 51°16' E 001°48'1312.7
2015-Aug-02 16:33N 51°27' E 001°57'1212.0
2015-Aug-02 15:33N 51°36' E 002°10'1211.7
2015-Aug-02 14:33N 51°45' E 002°23'2412.1
2015-Aug-02 12:33N 52°08' E 002°37'1514.7
2015-Aug-02 11:33N 52°21' E 002°47'1515.3
2015-Aug-02 10:33N 52°35' E 002°59'1515.4
2015-Aug-02 09:33N 52°48' E 003°10'1915.0
2015-Aug-02 08:18N 53°06' E 003°21'9213.1
2015-Aug-02 01:19N 54°22' E 004°47'1113.6
2015-Aug-02 00:32N 54°31' E 004°58'9213.2
2015-Aug-01 17:33N 55°47' E 006°30'1313.0
2015-Aug-01 16:33N 55°58' E 006°42'13312.9
2015-Aug-01 06:15N 57°40' E 009°18'2312.5
2015-Aug-01 04:27N 57°48' E 009°58'1112.2
2015-Aug-01 03:33N 57°49' E 010°18'1211.7
2015-Aug-01 02:33N 57°49' E 010°40'1212.0
2015-Aug-01 01:33N 57°42' E 010°58'1312.7
2015-Aug-01 00:33N 57°33' E 011°15'1313.0
2015-Jul-31 23:33N 57°22' E 011°29'1413.5
2015-Jul-31 22:34N 57°09' E 011°38'1413.9
2015-Jul-31 21:33N 56°56' E 011°46'1212.4
2015-Jul-31 20:33N 56°44' E 011°52'9111.1
2015-Jul-31 12:20N 55°18' E 011°03'810.6
2015-Jul-31 11:32N 55°09' E 011°03'1111.5
2015-Jul-31 10:33N 54°58' E 010°58'1211.2
2015-Jul-31 09:30N 54°47' E 010°50'8 8.0
2015-Jul-31 08:33N 54°40' E 010°49'9 9.0
2015-Jul-31 07:33N 54°36' E 011°03'1212.1
2015-Jul-31 06:33N 54°33' E 011°23'1212.2
2015-Jul-31 05:33N 54°27' E 011°42'1211.9
2015-Jul-31 04:33N 54°26' E 012°02'1110.5
2015-Jul-31 03:31N 54°34' E 012°15'5112.1
2015-Jul-30 23:21N 54°58' E 013°32'1013.1
2015-Jul-30 22:33N 55°01' E 013°49'1312.6
2015-Jul-30 21:33N 55°07' E 014°08'1313.4
2015-Jul-30 20:33N 55°18' E 014°23'1313.3
2015-Jul-30 19:33N 55°28' E 014°39'1313.3
2015-Jul-30 18:33N 55°34' E 014°60'1313.5
2015-Jul-30 17:33N 55°41' E 015°20'1613.3
2015-Jul-30 16:20N 55°49' E 015°46'31313.2
2015-Jul-29 16:33N 59°31' E 022°38'1413.9
2015-Jul-29 15:32N 59°35' E 023°05'1413.9
2015-Jul-29 14:33N 59°39' E 023°31'1414.0
2015-Jul-29 13:33N 59°43' E 023°58'1513.8
2015-Jul-29 12:28N 59°47' E 024°26'1514.0
2015-Jul-29 11:23N 59°51' E 024°56'2913.9
2015-Jul-29 09:18N 59°56' E 025°53'1113.6
2015-Jul-29 08:30N 59°59' E 026°14'1313.5
2015-Jul-29 07:34N 60°01' E 026°39'1513.0
2015-Jul-29 06:25N 60°01' E 027°08'1313.9
2015-Jul-29 05:29N 60°08' E 027°30'5313.0
2015-Jul-29 01:24N 60°02' E 029°16'7 8.9
2015-Jul-29 00:33N 60°01' E 029°31'9 8.5
2015-Jul-28 23:33N 59°58' E 029°47'9 8.6
2015-Jul-28 22:33N 59°55' E 030°03'5 5.0
2015-Jul-28 21:33N 59°53' E 030°12'0 0.2
2015-Jul-28 20:33N 59°53' E 030°12'0 0.0
2015-Jul-28 19:33N 59°53' E 030°12'0 0.0
2015-Jul-28 18:33N 59°53' E 030°12'0 0.0
2015-Jul-28 17:33N 59°53' E 030°12'0 0.0
2015-Jul-28 16:33N 59°53' E 030°12'0 0.0
2015-Jul-28 15:24N 59°53' E 030°12'0 0.0
2015-Jul-28 14:33N 59°53' E 030°12'0 0.0
2015-Jul-28 13:33N 59°53' E 030°12'0 0.0
2015-Jul-28 12:33N 59°53' E 030°12'0 0.0
2015-Jul-28 11:30N 59°53' E 030°12'0 0.0
2015-Jul-28 10:27N 59°53' E 030°12'0 0.0
2015-Jul-28 09:33N 59°53' E 030°12'0 0.0
2015-Jul-28 08:33N 59°53' E 030°12'0 0.0
2015-Jul-28 07:33N 59°53' E 030°12'0 0.0
2015-Jul-28 06:33N 59°53' E 030°12'0 0.0
2015-Jul-28 05:33N 59°53' E 030°12'0 0.0
2015-Jul-28 04:33N 59°53' E 030°12'0 0.0
2015-Jul-28 03:33N 59°53' E 030°12'0 0.0
2015-Jul-28 02:33N 59°53' E 030°12'0 0.0
2015-Jul-28 01:33N 59°53' E 030°12'0 0.0
2015-Jul-28 00:33N 59°53' E 030°12'0 0.0
2015-Jul-27 23:33N 59°53' E 030°12'0 0.0
2015-Jul-27 22:33N 59°53' E 030°12'0 0.0
2015-Jul-27 21:30N 59°53' E 030°12'0 0.0
2015-Jul-27 20:33N 59°53' E 030°12'0 0.0
2015-Jul-27 19:33N 59°53' E 030°12'0 0.0
2015-Jul-27 18:30N 59°53' E 030°12'0 0.0
2015-Jul-27 17:30N 59°53' E 030°12'0 0.0
2015-Jul-27 16:33N 59°53' E 030°12'0 0.0
2015-Jul-27 15:30N 59°53' E 030°12'0 0.0
2015-Jul-27 14:33N 59°53' E 030°12'0 0.0
2015-Jul-27 13:30N 59°53' E 030°12'0 0.0
2015-Jul-27 12:33N 59°53' E 030°12'0 0.0
2015-Jul-27 11:33N 59°53' E 030°12'0 0.0
2015-Jul-27 10:33N 59°53' E 030°12'0 0.0
2015-Jul-27 09:33N 59°53' E 030°12'0 0.0
2015-Jul-27 08:32N 59°53' E 030°12'0 0.0
2015-Jul-27 07:33N 59°53' E 030°12'0 0.0
2015-Jul-27 06:32N 59°53' E 030°12'0 0.0
2015-Jul-27 05:33N 59°53' E 030°12'0 0.0
2015-Jul-27 04:33N 59°53' E 030°12'0 0.0
2015-Jul-27 03:33N 59°53' E 030°12'0 0.0
2015-Jul-27 02:32N 59°53' E 030°12'0 0.0
2015-Jul-27 01:33N 59°53' E 030°12'0 0.0
2015-Jul-27 00:32N 59°53' E 030°12'0 0.0
2015-Jul-26 23:33N 59°53' E 030°12'0 0.0
2015-Jul-26 22:33N 59°53' E 030°12'0 0.0
2015-Jul-26 21:32N 59°53' E 030°12'0 0.0
2015-Jul-26 20:32N 59°53' E 030°12'0 0.0
2015-Jul-26 19:33N 59°53' E 030°12'0 0.0
2015-Jul-26 18:33N 59°53' E 030°12'0 0.0
2015-Jul-26 17:32N 59°53' E 030°12'0 0.0
2015-Jul-26 16:32N 59°53' E 030°12'0 0.0
2015-Jul-26 15:33N 59°53' E 030°12'0 0.0
2015-Jul-26 14:32N 59°53' E 030°12'0 0.0
2015-Jul-26 13:32N 59°53' E 030°12'0 0.0
2015-Jul-26 12:32N 59°53' E 030°12'0 0.0
2015-Jul-26 11:32N 59°53' E 030°12'0 0.0
2015-Jul-26 10:32N 59°53' E 030°12'0 0.0
2015-Jul-26 09:30N 59°53' E 030°12'0 0.0
2015-Jul-26 08:32N 59°53' E 030°12'0 0.0
2015-Jul-26 07:33N 59°53' E 030°12'0 0.0
2015-Jul-26 06:32N 59°53' E 030°12'0 0.0
2015-Jul-26 05:32N 59°53' E 030°12'0 0.0
2015-Jul-26 04:32N 59°53' E 030°12'0 0.0
2015-Jul-26 03:32N 59°53' E 030°12'0 0.0
2015-Jul-26 02:32N 59°53' E 030°12'0 0.0
2015-Jul-26 01:32N 59°53' E 030°12'0 0.0
2015-Jul-26 00:29N 59°53' E 030°12'0 0.0
2015-Jul-25 23:32N 59°53' E 030°12'0 0.0
2015-Jul-25 22:32N 59°53' E 030°12'0 0.0
2015-Jul-25 21:32N 59°53' E 030°12'0 0.0
2015-Jul-25 20:32N 59°53' E 030°12'0 0.0
2015-Jul-25 19:32N 59°53' E 030°12'0 0.0
2015-Jul-25 18:29N 59°53' E 030°12'0 0.0
2015-Jul-25 17:32N 59°53' E 030°12'0 0.0
2015-Jul-25 16:32N 59°53' E 030°12'0 0.0
2015-Jul-25 15:32N 59°53' E 030°12'0 0.0
2015-Jul-25 14:32N 59°53' E 030°12'0 0.0
2015-Jul-25 13:32N 59°53' E 030°12'0 0.0
2015-Jul-25 12:32N 59°53' E 030°12'0 0.0
2015-Jul-25 11:32N 59°53' E 030°12'0 0.0
2015-Jul-25 10:32N 59°53' E 030°12'0 0.0
2015-Jul-25 09:29N 59°53' E 030°12'0 0.0
2015-Jul-25 08:32N 59°53' E 030°12'0 0.0
2015-Jul-25 07:32N 59°53' E 030°12'0 0.0
2015-Jul-25 06:32N 59°53' E 030°12'0 0.0
2015-Jul-25 05:32N 59°53' E 030°12'0 0.0
2015-Jul-25 04:32N 59°53' E 030°12'0 0.0
2015-Jul-25 03:32N 59°53' E 030°12'0 0.0
2015-Jul-25 02:32N 59°53' E 030°12'0 0.0
2015-Jul-25 01:32N 59°53' E 030°12'0 0.0
2015-Jul-25 00:32N 59°53' E 030°12'0 0.0
2015-Jul-24 23:32N 59°53' E 030°12'0 0.0
2015-Jul-24 22:32N 59°53' E 030°12'0 0.0
2015-Jul-24 21:32N 59°53' E 030°12'0 0.0
2015-Jul-24 20:32N 59°53' E 030°12'0 0.0
2015-Jul-24 19:32N 59°53' E 030°12'0 0.0
2015-Jul-24 18:32N 59°53' E 030°12'0 0.0
2015-Jul-24 17:29N 59°53' E 030°12'0 0.0
2015-Jul-24 16:29N 59°53' E 030°12'0 0.0
2015-Jul-24 15:32N 59°53' E 030°12'0 0.0
2015-Jul-24 14:32N 59°53' E 030°12'0 0.0
2015-Jul-24 13:32N 59°53' E 030°12'0 0.0
2015-Jul-24 12:32N 59°53' E 030°12'0 0.0
2015-Jul-24 11:32N 59°53' E 030°12'0 0.0
2015-Jul-24 10:32N 59°53' E 030°12'0 0.0
2015-Jul-24 09:32N 59°53' E 030°12'0 0.0
2015-Jul-24 08:32N 59°53' E 030°12'0 0.0
2015-Jul-24 07:32N 59°53' E 030°12'0 0.0
2015-Jul-24 06:32N 59°53' E 030°12'0 0.0
2015-Jul-24 05:29N 59°53' E 030°12'0 0.0
2015-Jul-24 04:32N 59°53' E 030°12'0 0.0
2015-Jul-24 03:32N 59°53' E 030°12'0 0.0
2015-Jul-24 02:32N 59°53' E 030°12'0 0.0
2015-Jul-24 01:32N 59°53' E 030°12'0 0.0
2015-Jul-24 00:32N 59°53' E 030°12'0 0.0
2015-Jul-23 23:29N 59°53' E 030°12'0 0.0
2015-Jul-23 22:32N 59°53' E 030°12'0 0.0
2015-Jul-23 21:32N 59°53' E 030°12'0 0.0
2015-Jul-23 20:32N 59°53' E 030°12'0 0.0
2015-Jul-23 19:32N 59°53' E 030°12'0 0.0
2015-Jul-23 18:32N 59°53' E 030°12'  

Dump ship's entire track history